sensor_id;sensor_type;location;lat;lon;timestamp;pressure;altitude;pressure_sealevel;temperature;humidity
28626;BME280;18905;42.668;23.364;2022-10-31T00:00:18;95550.22;;;15.09;77.66
28626;BME280;18905;42.668;23.364;2022-10-31T00:02:44;95536.13;;;14.95;78.14
28626;BME280;18905;42.668;23.364;2022-10-31T00:05:09;95527.97;;;14.95;78.51
28626;BME280;18905;42.668;23.364;2022-10-31T00:07:35;95532.59;;;14.95;79.09
28626;BME280;18905;42.668;23.364;2022-10-31T00:10:00;95537.25;;;14.94;79.76
28626;BME280;18905;42.668;23.364;2022-10-31T00:12:26;95541.84;;;15.14;78.42
28626;BME280;18905;42.668;23.364;2022-10-31T00:14:51;95532.22;;;14.84;81.08
28626;BME280;18905;42.668;23.364;2022-10-31T00:17:17;95534.91;;;15.05;81.17
28626;BME280;18905;42.668;23.364;2022-10-31T00:19:42;95543.69;;;14.90;81.73
28626;BME280;18905;42.668;23.364;2022-10-31T00:22:08;95543.09;;;14.84;82.64
28626;BME280;18905;42.668;23.364;2022-10-31T00:24:33;95532.03;;;14.69;82.88
28626;BME280;18905;42.668;23.364;2022-10-31T00:26:58;95521.81;;;14.86;82.07
28626;BME280;18905;42.668;23.364;2022-10-31T00:29:24;95532.91;;;14.93;81.71
28626;BME280;18905;42.668;23.364;2022-10-31T00:31:49;95542.63;;;14.82;83.42
28626;BME280;18905;42.668;23.364;2022-10-31T00:34:15;95533.84;;;14.65;84.65
28626;BME280;18905;42.668;23.364;2022-10-31T00:36:40;95529.69;;;14.79;84.16
28626;BME280;18905;42.668;23.364;2022-10-31T00:39:05;95538.00;;;14.83;83.75
28626;BME280;18905;42.668;23.364;2022-10-31T00:41:31;95532.38;;;14.67;85.59
28626;BME280;18905;42.668;23.364;2022-10-31T00:43:56;95535.81;;;14.76;84.97
28626;BME280;18905;42.668;23.364;2022-10-31T00:46:22;95532.28;;;14.76;84.97
28626;BME280;18905;42.668;23.364;2022-10-31T00:48:47;95532.59;;;14.95;83.44
28626;BME280;18905;42.668;23.364;2022-10-31T00:51:12;95542.38;;;14.96;83.88
28626;BME280;18905;42.668;23.364;2022-10-31T00:53:38;95543.81;;;14.93;84.11
28626;BME280;18905;42.668;23.364;2022-10-31T00:56:03;95536.50;;;15.06;82.85
28626;BME280;18905;42.668;23.364;2022-10-31T00:58:29;95542.78;;;15.18;82.00
28626;BME280;18905;42.668;23.364;2022-10-31T01:00:54;95544.44;;;15.11;81.83
28626;BME280;18905;42.668;23.364;2022-10-31T01:03:27;95545.38;;;15.15;81.76
28626;BME280;18905;42.668;23.364;2022-10-31T01:05:57;95557.97;;;15.19;82.49
28626;BME280;18905;42.668;23.364;2022-10-31T01:08:23;95549.59;;;14.71;86.41
28626;BME280;18905;42.668;23.364;2022-10-31T01:11:01;95547.63;;;14.39;88.63
28626;BME280;18905;42.668;23.364;2022-10-31T01:13:27;95545.75;;;13.94;91.98
28626;BME280;18905;42.668;23.364;2022-10-31T01:15:57;95532.25;;;13.48;96.31
28626;BME280;18905;42.668;23.364;2022-10-31T01:18:23;95553.84;;;13.27;99.63
28626;BME280;18905;42.668;23.364;2022-10-31T01:20:57;95553.03;;;13.35;100.00
28626;BME280;18905;42.668;23.364;2022-10-31T01:23:23;95546.41;;;12.99;100.00
28626;BME280;18905;42.668;23.364;2022-10-31T01:25:49;95554.38;;;12.87;100.00
28626;BME280;18905;42.668;23.364;2022-10-31T01:28:14;95561.69;;;12.69;100.00
28626;BME280;18905;42.668;23.364;2022-10-31T01:30:39;95569.66;;;12.40;100.00
28626;BME280;18905;42.668;23.364;2022-10-31T01:33:05;95561.53;;;12.32;100.00
28626;BME280;18905;42.668;23.364;2022-10-31T01:35:30;95559.13;;;12.22;100.00
28626;BME280;18905;42.668;23.364;2022-10-31T01:37:55;95568.22;;;12.34;100.00
28626;BME280;18905;42.668;23.364;2022-10-31T01:40:21;95538.75;;;12.33;100.00
28626;BME280;18905;42.668;23.364;2022-10-31T01:42:46;95571.75;;;12.60;100.00
28626;BME280;18905;42.668;23.364;2022-10-31T01:45:13;95568.53;;;12.67;100.00
28626;BME280;18905;42.668;23.364;2022-10-31T01:47:43;95577.34;;;12.81;100.00
28626;BME280;18905;42.668;23.364;2022-10-31T01:50:33;95577.19;;;12.60;100.00
28626;BME280;18905;42.668;23.364;2022-10-31T01:53:01;95578.94;;;12.82;100.00
28626;BME280;18905;42.668;23.364;2022-10-31T01:55:33;95570.31;;;12.71;100.00
28626;BME280;18905;42.668;23.364;2022-10-31T01:58:20;95572.53;;;12.95;100.00
28626;BME280;18905;42.668;23.364;2022-10-31T02:00:49;95558.50;;;13.10;100.00
28626;BME280;18905;42.668;23.364;2022-10-31T02:03:18;95555.31;;;13.16;100.00
28626;BME280;18905;42.668;23.364;2022-10-31T02:05:45;95562.47;;;13.29;100.00
28626;BME280;18905;42.668;23.364;2022-10-31T02:08:16;95566.72;;;13.39;100.00
28626;BME280;18905;42.668;23.364;2022-10-31T02:10:43;95558.13;;;13.28;100.00
28626;BME280;18905;42.668;23.364;2022-10-31T02:13:09;95558.50;;;13.10;100.00
28626;BME280;18905;42.668;23.364;2022-10-31T02:15:37;95558.66;;;12.96;100.00
28626;BME280;18905;42.668;23.364;2022-10-31T02:18:04;95567.59;;;12.88;100.00
28626;BME280;18905;42.668;23.364;2022-10-31T02:20:36;95559.31;;;12.76;100.00
28626;BME280;18905;42.668;23.364;2022-10-31T02:26:31;95569.50;;;12.62;100.00
28626;BME280;18905;42.668;23.364;2022-10-31T02:31:31;95579.69;;;12.48;100.00
28626;BME280;18905;42.668;23.364;2022-10-31T02:34:02;95577.63;;;12.62;100.00
28626;BME280;18905;42.668;23.364;2022-10-31T02:36:58;95580.97;;;12.59;100.00
28626;BME280;18905;42.668;23.364;2022-10-31T02:42:16;95583.53;;;12.56;100.00
28626;BME280;18905;42.668;23.364;2022-10-31T02:48:03;95593.25;;;12.57;100.00
28626;BME280;18905;42.668;23.364;2022-10-31T02:50:35;95596.13;;;12.60;100.00
28626;BME280;18905;42.668;23.364;2022-10-31T02:53:03;95577.94;;;12.69;100.00
28626;BME280;18905;42.668;23.364;2022-10-31T03:00:25;95598.88;;;13.11;100.00
28626;BME280;18905;42.668;23.364;2022-10-31T03:05:37;95597.91;;;13.24;100.00
28626;BME280;18905;42.668;23.364;2022-10-31T03:10:45;95604.72;;;13.22;100.00
28626;BME280;18905;42.668;23.364;2022-10-31T03:16:04;95599.66;;;12.95;100.00
28626;BME280;18905;42.668;23.364;2022-10-31T03:18:37;95577.63;;;12.71;100.00
28626;BME280;18905;42.668;23.364;2022-10-31T03:21:09;95592.00;;;12.88;100.00
28626;BME280;18905;42.668;23.364;2022-10-31T03:23:39;95595.81;;;13.04;100.00
28626;BME280;18905;42.668;23.364;2022-10-31T03:26:07;95595.47;;;12.89;100.00
28626;BME280;18905;42.668;23.364;2022-10-31T03:28:47;95595.81;;;12.79;100.00
28626;BME280;18905;42.668;23.364;2022-10-31T03:31:18;95590.38;;;12.62;100.00
28626;BME280;18905;42.668;23.364;2022-10-31T03:33:47;95607.28;;;12.59;100.00
28626;BME280;18905;42.668;23.364;2022-10-31T03:36:15;95611.59;;;12.51;100.00
28626;BME280;18905;42.668;23.364;2022-10-31T03:38:43;95618.59;;;12.52;100.00
28626;BME280;18905;42.668;23.364;2022-10-31T03:41:19;95611.38;;;12.31;100.00
28626;BME280;18905;42.668;23.364;2022-10-31T03:43:54;95616.31;;;12.37;100.00
28626;BME280;18905;42.668;23.364;2022-10-31T03:46:21;95617.28;;;12.41;100.00
28626;BME280;18905;42.668;23.364;2022-10-31T03:48:47;95602.66;;;12.42;100.00
28626;BME280;18905;42.668;23.364;2022-10-31T03:51:22;95627.19;;;12.54;100.00
28626;BME280;18905;42.668;23.364;2022-10-31T03:54:03;95624.16;;;12.64;100.00
28626;BME280;18905;42.668;23.364;2022-10-31T03:56:35;95621.47;;;12.73;100.00
28626;BME280;18905;42.668;23.364;2022-10-31T03:59:05;95623.88;;;12.83;100.00
28626;BME280;18905;42.668;23.364;2022-10-31T04:01:35;95613.03;;;12.83;100.00
28626;BME280;18905;42.668;23.364;2022-10-31T04:04:03;95627.09;;;13.02;100.00
28626;BME280;18905;42.668;23.364;2022-10-31T04:06:30;95632.19;;;13.03;100.00
28626;BME280;18905;42.668;23.364;2022-10-31T04:08:59;95628.69;;;13.03;100.00
28626;BME280;18905;42.668;23.364;2022-10-31T04:11:29;95599.31;;;12.88;100.00
28626;BME280;18905;42.668;23.364;2022-10-31T04:13:57;95612.38;;;12.94;100.00
28626;BME280;18905;42.668;23.364;2022-10-31T04:16:24;95617.81;;;12.94;100.00
28626;BME280;18905;42.668;23.364;2022-10-31T04:18:51;95626.25;;;12.84;100.00
28626;BME280;18905;42.668;23.364;2022-10-31T04:21:16;95633.63;;;12.92;100.00
28626;BME280;18905;42.668;23.364;2022-10-31T04:23:42;95637.00;;;13.06;100.00
28626;BME280;18905;42.668;23.364;2022-10-31T04:26:10;95634.91;;;13.03;100.00
28626;BME280;18905;42.668;23.364;2022-10-31T04:28:36;95627.91;;;13.02;100.00
28626;BME280;18905;42.668;23.364;2022-10-31T04:31:02;95641.75;;;13.09;100.00
28626;BME280;18905;42.668;23.364;2022-10-31T04:33:28;95627.41;;;13.09;100.00
28626;BME280;18905;42.668;23.364;2022-10-31T04:35:53;95627.59;;;13.04;100.00
28626;BME280;18905;42.668;23.364;2022-10-31T04:38:19;95632.03;;;13.08;100.00
28626;BME280;18905;42.668;23.364;2022-10-31T04:40:45;95644.78;;;13.16;100.00
28626;BME280;18905;42.668;23.364;2022-10-31T04:43:11;95630.09;;;13.17;100.00
28626;BME280;18905;42.668;23.364;2022-10-31T04:45:37;95647.63;;;13.28;100.00
28626;BME280;18905;42.668;23.364;2022-10-31T04:48:02;95635.88;;;13.24;100.00
28626;BME280;18905;42.668;23.364;2022-10-31T04:50:28;95652.91;;;13.25;100.00
28626;BME280;18905;42.668;23.364;2022-10-31T04:52:53;95650.69;;;13.01;100.00
28626;BME280;18905;42.668;23.364;2022-10-31T04:55:19;95657.72;;;13.02;100.00
28626;BME280;18905;42.668;23.364;2022-10-31T04:57:46;95654.47;;;12.92;100.00
28626;BME280;18905;42.668;23.364;2022-10-31T05:00:14;95667.06;;;12.96;100.00
28626;BME280;18905;42.668;23.364;2022-10-31T05:02:47;95655.16;;;12.97;100.00
28626;BME280;18905;42.668;23.364;2022-10-31T05:05:14;95653.09;;;13.11;100.00
28626;BME280;18905;42.668;23.364;2022-10-31T05:07:44;95654.19;;;13.19;100.00
28626;BME280;18905;42.668;23.364;2022-10-31T05:10:12;95664.56;;;13.25;100.00
28626;BME280;18905;42.668;23.364;2022-10-31T05:12:48;95669.81;;;13.30;100.00
28626;BME280;18905;42.668;23.364;2022-10-31T05:15:14;95669.69;;;13.27;100.00
28626;BME280;18905;42.668;23.364;2022-10-31T05:17:40;95675.38;;;13.42;100.00
28626;BME280;18905;42.668;23.364;2022-10-31T05:20:05;95672.19;;;13.57;100.00
28626;BME280;18905;42.668;23.364;2022-10-31T05:22:31;95683.03;;;13.57;100.00
28626;BME280;18905;42.668;23.364;2022-10-31T05:24:56;95668.03;;;13.51;100.00
28626;BME280;18905;42.668;23.364;2022-10-31T05:27:22;95667.88;;;13.56;100.00
28626;BME280;18905;42.668;23.364;2022-10-31T05:29:47;95664.53;;;13.42;100.00
28626;BME280;18905;42.668;23.364;2022-10-31T05:32:12;95696.66;;;14.03;100.00
28626;BME280;18905;42.668;23.364;2022-10-31T05:34:38;95688.56;;;14.41;100.00
28626;BME280;18905;42.668;23.364;2022-10-31T05:37:03;95689.41;;;14.62;100.00
28626;BME280;18905;42.668;23.364;2022-10-31T05:39:29;95682.75;;;14.80;100.00
28626;BME280;18905;42.668;23.364;2022-10-31T05:41:54;95683.16;;;15.11;100.00
28626;BME280;18905;42.668;23.364;2022-10-31T05:44:19;95691.31;;;14.90;100.00
28626;BME280;18905;42.668;23.364;2022-10-31T05:46:46;95690.47;;;14.40;100.00
28626;BME280;18905;42.668;23.364;2022-10-31T05:49:12;95697.09;;;14.22;100.00
28626;BME280;18905;42.668;23.364;2022-10-31T05:51:37;95685.13;;;14.06;100.00
28626;BME280;18905;42.668;23.364;2022-10-31T05:54:03;95696.03;;;13.98;100.00
28626;BME280;18905;42.668;23.364;2022-10-31T05:56:28;95699.91;;;13.88;100.00
28626;BME280;18905;42.668;23.364;2022-10-31T05:58:54;95692.13;;;13.70;100.00
28626;BME280;18905;42.668;23.364;2022-10-31T06:01:19;95680.06;;;13.96;100.00
28626;BME280;18905;42.668;23.364;2022-10-31T06:03:44;95690.38;;;15.68;100.00
28626;BME280;18905;42.668;23.364;2022-10-31T06:06:10;95700.53;;;16.24;91.38
28626;BME280;18905;42.668;23.364;2022-10-31T06:08:36;95720.88;;;17.23;78.49
28626;BME280;18905;42.668;23.364;2022-10-31T06:11:01;95704.53;;;19.26;67.06
28626;BME280;18905;42.668;23.364;2022-10-31T06:13:27;95719.19;;;19.90;60.16
28626;BME280;18905;42.668;23.364;2022-10-31T06:15:52;95703.25;;;19.77;57.80
28626;BME280;18905;42.668;23.364;2022-10-31T06:18:17;95722.16;;;21.07;54.58
28626;BME280;18905;42.668;23.364;2022-10-31T06:20:43;95735.34;;;21.50;52.91
28626;BME280;18905;42.668;23.364;2022-10-31T06:23:08;95735.81;;;21.29;52.92
28626;BME280;18905;42.668;23.364;2022-10-31T06:25:34;95727.72;;;21.14;53.07
28626;BME280;18905;42.668;23.364;2022-10-31T06:28:00;95741.09;;;21.15;52.92
28626;BME280;18905;42.668;23.364;2022-10-31T06:30:26;95749.03;;;21.20;52.51
28626;BME280;18905;42.668;23.364;2022-10-31T06:32:51;95744.31;;;21.47;51.29
28626;BME280;18905;42.668;23.364;2022-10-31T06:35:17;95751.19;;;22.19;49.34
28626;BME280;18905;42.668;23.364;2022-10-31T06:37:43;95751.16;;;22.15;49.48
28626;BME280;18905;42.668;23.364;2022-10-31T06:40:15;95752.78;;;22.20;48.40
28626;BME280;18905;42.668;23.364;2022-10-31T06:42:40;95750.56;;;21.44;50.12
28626;BME280;18905;42.668;23.364;2022-10-31T06:45:06;95745.13;;;21.73;49.15
28626;BME280;18905;42.668;23.364;2022-10-31T06:47:31;95750.84;;;21.65;49.15
28626;BME280;18905;42.668;23.364;2022-10-31T06:49:57;95744.50;;;21.87;49.38
28626;BME280;18905;42.668;23.364;2022-10-31T06:52:22;95752.03;;;21.64;49.37
28626;BME280;18905;42.668;23.364;2022-10-31T06:54:48;95742.44;;;20.79;52.15
28626;BME280;18905;42.668;23.364;2022-10-31T06:57:13;95755.31;;;20.75;52.44
28626;BME280;18905;42.668;23.364;2022-10-31T06:59:39;95751.53;;;20.83;52.90
28626;BME280;18905;42.668;23.364;2022-10-31T07:02:04;95763.25;;;20.39;54.09
28626;BME280;18905;42.668;23.364;2022-10-31T07:04:30;95742.22;;;20.46;54.41
28626;BME280;18905;42.668;23.364;2022-10-31T07:06:55;95756.16;;;21.51;51.70
28626;BME280;18905;42.668;23.364;2022-10-31T07:09:21;95751.28;;;21.67;50.42
28626;BME280;18905;42.668;23.364;2022-10-31T07:11:46;95753.63;;;22.27;49.56
28626;BME280;18905;42.668;23.364;2022-10-31T07:14:11;95731.69;;;22.31;48.70
28626;BME280;18905;42.668;23.364;2022-10-31T07:16:37;95749.81;;;21.73;49.67
28626;BME280;18905;42.668;23.364;2022-10-31T07:19:02;95747.13;;;21.02;52.27
28626;BME280;18905;42.668;23.364;2022-10-31T07:21:28;95744.88;;;21.07;52.35
28626;BME280;18905;42.668;23.364;2022-10-31T07:23:53;95740.94;;;21.31;51.83
28626;BME280;18905;42.668;23.364;2022-10-31T07:26:18;95729.84;;;21.24;52.17
28626;BME280;18905;42.668;23.364;2022-10-31T07:28:46;95735.34;;;20.98;52.57
28626;BME280;18905;42.668;23.364;2022-10-31T07:31:12;95734.84;;;20.28;54.79
28626;BME280;18905;42.668;23.364;2022-10-31T07:33:37;95737.81;;;21.58;51.91
28626;BME280;18905;42.668;23.364;2022-10-31T07:36:03;95734.50;;;21.46;52.21
28626;BME280;18905;42.668;23.364;2022-10-31T07:38:28;95735.91;;;21.10;52.65
28626;BME280;18905;42.668;23.364;2022-10-31T07:40:54;95722.00;;;20.54;54.49
28626;BME280;18905;42.668;23.364;2022-10-31T07:43:19;95736.03;;;20.49;56.31
28626;BME280;18905;42.668;23.364;2022-10-31T07:45:49;95735.16;;;19.85;57.40
28626;BME280;18905;42.668;23.364;2022-10-31T07:48:15;95723.72;;;20.21;58.93
28626;BME280;18905;42.668;23.364;2022-10-31T07:50:40;95729.88;;;19.23;61.22
28626;BME280;18905;42.668;23.364;2022-10-31T07:53:11;95721.03;;;18.98;64.58
28626;BME280;18905;42.668;23.364;2022-10-31T07:55:37;95733.31;;;19.73;61.14
28626;BME280;18905;42.668;23.364;2022-10-31T07:58:04;95715.75;;;20.12;59.36
28626;BME280;18905;42.668;23.364;2022-10-31T08:00:31;95728.59;;;20.72;57.01
28626;BME280;18905;42.668;23.364;2022-10-31T08:05:23;95725.66;;;19.82;60.08
28626;BME280;18905;42.668;23.364;2022-10-31T08:07:48;95737.50;;;20.05;59.93
28626;BME280;18905;42.668;23.364;2022-10-31T08:10:14;95739.56;;;20.72;57.19
28626;BME280;18905;42.668;23.364;2022-10-31T08:12:39;95720.72;;;21.16;54.50
28626;BME280;18905;42.668;23.364;2022-10-31T08:15:05;95727.41;;;21.45;53.19
28626;BME280;18905;42.668;23.364;2022-10-31T08:17:35;95715.84;;;21.06;55.12
28626;BME280;18905;42.668;23.364;2022-10-31T08:20:00;95727.84;;;21.21;54.36
28626;BME280;18905;42.668;23.364;2022-10-31T08:22:25;95720.81;;;20.74;55.97
28626;BME280;18905;42.668;23.364;2022-10-31T08:24:51;95726.03;;;21.58;53.99
28626;BME280;18905;42.668;23.364;2022-10-31T08:27:16;95742.50;;;22.46;54.11
28626;BME280;18905;42.668;23.364;2022-10-31T08:29:42;95728.22;;;23.75;56.32
28626;BME280;18905;42.668;23.364;2022-10-31T08:32:07;95737.31;;;24.68;48.09
28626;BME280;18905;42.668;23.364;2022-10-31T08:34:32;95715.59;;;24.73;51.30
28626;BME280;18905;42.668;23.364;2022-10-31T08:36:58;95732.81;;;23.50;47.67
28626;BME280;18905;42.668;23.364;2022-10-31T08:39:23;95725.00;;;23.62;47.23
28626;BME280;18905;42.668;23.364;2022-10-31T08:41:48;95717.66;;;23.23;48.01
28626;BME280;18905;42.668;23.364;2022-10-31T08:44:15;95730.81;;;23.00;48.58
28626;BME280;18905;42.668;23.364;2022-10-31T08:46:41;95736.13;;;23.22;48.38
28626;BME280;18905;42.668;23.364;2022-10-31T08:49:06;95725.50;;;23.21;47.88
28626;BME280;18905;42.668;23.364;2022-10-31T08:51:31;95720.06;;;23.31;48.08
28626;BME280;18905;42.668;23.364;2022-10-31T08:53:57;95724.53;;;23.03;48.48
28626;BME280;18905;42.668;23.364;2022-10-31T08:56:23;95709.41;;;23.30;47.95
28626;BME280;18905;42.668;23.364;2022-10-31T08:58:48;95725.00;;;23.62;47.92
28626;BME280;18905;42.668;23.364;2022-10-31T09:01:14;95721.50;;;23.72;47.94
28626;BME280;18905;42.668;23.364;2022-10-31T09:03:39;95714.69;;;24.27;47.34
28626;BME280;18905;42.668;23.364;2022-10-31T09:06:05;95719.19;;;24.98;45.44
28626;BME280;18905;42.668;23.364;2022-10-31T09:08:34;95718.00;;;24.82;44.66
28626;BME280;18905;42.668;23.364;2022-10-31T09:11:00;95714.19;;;24.01;46.65
28626;BME280;18905;42.668;23.364;2022-10-31T09:13:26;95712.84;;;24.84;45.54
28626;BME280;18905;42.668;23.364;2022-10-31T09:15:52;95701.81;;;25.05;44.42
28626;BME280;18905;42.668;23.364;2022-10-31T09:18:20;95709.69;;;25.06;46.91
28626;BME280;18905;42.668;23.364;2022-10-31T09:20:47;95709.72;;;25.48;43.50
28626;BME280;18905;42.668;23.364;2022-10-31T09:23:23;95712.31;;;26.15;44.71
28626;BME280;18905;42.668;23.364;2022-10-31T09:25:50;95716.41;;;25.16;44.29
28626;BME280;18905;42.668;23.364;2022-10-31T09:28:19;95717.59;;;25.43;43.54
28626;BME280;18905;42.668;23.364;2022-10-31T09:30:47;95705.34;;;24.74;45.57
28626;BME280;18905;42.668;23.364;2022-10-31T09:33:13;95705.75;;;25.11;46.26
28626;BME280;18905;42.668;23.364;2022-10-31T09:35:39;95716.34;;;25.79;43.37
28626;BME280;18905;42.668;23.364;2022-10-31T09:38:10;95710.78;;;25.89;43.42
28626;BME280;18905;42.668;23.364;2022-10-31T09:40:36;95710.38;;;26.05;42.89
28626;BME280;18905;42.668;23.364;2022-10-31T09:43:17;95711.13;;;26.09;44.04
28626;BME280;18905;42.668;23.364;2022-10-31T09:46:08;95687.81;;;26.10;44.66
28626;BME280;18905;42.668;23.364;2022-10-31T09:51:23;95710.72;;;26.86;42.10
28626;BME280;18905;42.668;23.364;2022-10-31T09:56:28;95704.88;;;25.84;42.49
28626;BME280;18905;42.668;23.364;2022-10-31T09:58:59;95699.81;;;24.91;44.14
28626;BME280;18905;42.668;23.364;2022-10-31T10:06:46;95691.94;;;26.60;42.06
28626;BME280;18905;42.668;23.364;2022-10-31T10:09:14;95680.25;;;26.14;41.66
28626;BME280;18905;42.668;23.364;2022-10-31T10:11:59;95685.19;;;26.54;42.04
28626;BME280;18905;42.668;23.364;2022-10-31T10:14:48;95678.31;;;26.83;40.74
28626;BME280;18905;42.668;23.364;2022-10-31T10:20:43;95670.94;;;27.54;41.82
28626;BME280;18905;42.668;23.364;2022-10-31T10:23:40;95664.69;;;28.17;40.13
28626;BME280;18905;42.668;23.364;2022-10-31T10:26:20;95668.81;;;28.05;39.12
28626;BME280;18905;42.668;23.364;2022-10-31T10:31:40;95658.38;;;27.79;38.17
28626;BME280;18905;42.668;23.364;2022-10-31T10:34:14;95654.81;;;28.16;37.54
28626;BME280;18905;42.668;23.364;2022-10-31T10:36:59;95648.59;;;27.68;37.81
28626;BME280;18905;42.668;23.364;2022-10-31T10:39:31;95635.00;;;27.47;38.23
28626;BME280;18905;42.668;23.364;2022-10-31T10:41:59;95641.53;;;26.10;39.92
28626;BME280;18905;42.668;23.364;2022-10-31T10:44:47;95642.00;;;25.95;40.34
28626;BME280;18905;42.668;23.364;2022-10-31T10:47:42;95625.81;;;25.86;40.28
28626;BME280;18905;42.668;23.364;2022-10-31T10:50:27;95634.44;;;26.09;40.04
28626;BME280;18905;42.668;23.364;2022-10-31T10:55:56;95637.09;;;26.30;40.05
28626;BME280;18905;42.668;23.364;2022-10-31T10:58:23;95627.28;;;26.15;39.57
28626;BME280;18905;42.668;23.364;2022-10-31T11:00:49;95634.72;;;24.97;40.80
28626;BME280;18905;42.668;23.364;2022-10-31T11:03:16;95622.06;;;24.54;42.25
28626;BME280;18905;42.668;23.364;2022-10-31T11:08:30;95626.78;;;25.38;41.23
28626;BME280;18905;42.668;23.364;2022-10-31T11:13:36;95604.44;;;26.01;40.48
28626;BME280;18905;42.668;23.364;2022-10-31T11:18:50;95609.47;;;26.20;39.51
28626;BME280;18905;42.668;23.364;2022-10-31T11:21:34;95604.09;;;26.50;39.70
28626;BME280;18905;42.668;23.364;2022-10-31T11:26:28;95605.44;;;26.89;38.69
28626;BME280;18905;42.668;23.364;2022-10-31T11:28:58;95605.38;;;26.93;38.48
28626;BME280;18905;42.668;23.364;2022-10-31T11:31:24;95586.47;;;26.30;38.90
28626;BME280;18905;42.668;23.364;2022-10-31T11:33:59;95602.63;;;25.56;40.24
28626;BME280;18905;42.668;23.364;2022-10-31T11:36:35;95589.81;;;25.90;39.90
28626;BME280;18905;42.668;23.364;2022-10-31T11:39:04;95588.31;;;26.43;39.14
28626;BME280;18905;42.668;23.364;2022-10-31T11:41:33;95583.97;;;26.46;39.33
28626;BME280;18905;42.668;23.364;2022-10-31T11:44:13;95590.59;;;26.01;39.02
28626;BME280;18905;42.668;23.364;2022-10-31T11:46:46;95590.22;;;25.92;39.44
28626;BME280;18905;42.668;23.364;2022-10-31T11:49:17;95572.38;;;25.00;41.34
28626;BME280;18905;42.668;23.364;2022-10-31T11:51:47;95554.06;;;25.55;40.63
28626;BME280;18905;42.668;23.364;2022-10-31T11:54:59;95574.44;;;25.89;39.72
28626;BME280;18905;42.668;23.364;2022-10-31T11:57:33;95576.66;;;25.29;40.38
28626;BME280;18905;42.668;23.364;2022-10-31T12:05:59;95556.81;;;25.55;41.01
28626;BME280;18905;42.668;23.364;2022-10-31T12:08:31;95564.16;;;25.93;40.44
28626;BME280;18905;42.668;23.364;2022-10-31T12:18:53;95546.88;;;25.71;39.40
28626;BME280;18905;42.668;23.364;2022-10-31T12:24:13;95559.31;;;26.11;39.02
28626;BME280;18905;42.668;23.364;2022-10-31T12:29:47;95567.31;;;26.53;38.26
28626;BME280;18905;42.668;23.364;2022-10-31T12:32:26;95570.66;;;25.55;39.41
28626;BME280;18905;42.668;23.364;2022-10-31T12:37:41;95565.13;;;25.48;40.08
28626;BME280;18905;42.668;23.364;2022-10-31T12:56:07;95562.81;;;25.25;40.53
28626;BME280;18905;42.668;23.364;2022-10-31T12:58:46;95558.09;;;25.29;40.29
28626;BME280;18905;42.668;23.364;2022-10-31T13:01:17;95559.63;;;25.37;40.49
28626;BME280;18905;42.668;23.364;2022-10-31T13:06:17;95522.78;;;25.68;39.82
28626;BME280;18905;42.668;23.364;2022-10-31T13:08:45;95559.63;;;25.44;40.44
28626;BME280;18905;42.668;23.364;2022-10-31T13:11:19;95541.91;;;25.31;40.08
28626;BME280;18905;42.668;23.364;2022-10-31T13:14:07;95563.56;;;25.40;40.62
28626;BME280;18905;42.668;23.364;2022-10-31T13:16:37;95556.47;;;25.46;40.17
28626;BME280;18905;42.668;23.364;2022-10-31T13:21:41;95543.13;;;25.09;40.33
28626;BME280;18905;42.668;23.364;2022-10-31T13:24:15;95559.28;;;25.32;40.28
28626;BME280;18905;42.668;23.364;2022-10-31T13:26:50;95550.13;;;25.45;40.22
28626;BME280;18905;42.668;23.364;2022-10-31T13:31:54;95551.84;;;24.94;41.99
28626;BME280;18905;42.668;23.364;2022-10-31T13:34:31;95535.66;;;24.99;41.79
28626;BME280;18905;42.668;23.364;2022-10-31T13:37:15;95534.34;;;25.42;41.46
28626;BME280;18905;42.668;23.364;2022-10-31T13:42:35;95557.47;;;25.87;39.75
28626;BME280;18905;42.668;23.364;2022-10-31T13:45:24;95544.22;;;25.40;40.96
28626;BME280;18905;42.668;23.364;2022-10-31T13:47:59;95562.75;;;25.53;40.63
28626;BME280;18905;42.668;23.364;2022-10-31T13:50:30;95555.31;;;25.36;40.51
28626;BME280;18905;42.668;23.364;2022-10-31T13:55:45;95512.34;;;25.04;40.81
28626;BME280;18905;42.668;23.364;2022-10-31T13:58:37;95543.88;;;25.27;40.22
28626;BME280;18905;42.668;23.364;2022-10-31T14:01:18;95541.88;;;25.24;40.48
28626;BME280;18905;42.668;23.364;2022-10-31T14:04:05;95547.84;;;25.12;40.68
28626;BME280;18905;42.668;23.364;2022-10-31T14:06:59;95566.00;;;25.17;41.11
28626;BME280;18905;42.668;23.364;2022-10-31T14:15:04;95562.91;;;24.80;42.01
28626;BME280;18905;42.668;23.364;2022-10-31T14:17:44;95563.69;;;24.87;43.16
28626;BME280;18905;42.668;23.364;2022-10-31T14:22:37;95552.66;;;24.80;41.75
28626;BME280;18905;42.668;23.364;2022-10-31T14:25:33;95570.81;;;24.88;42.76
28626;BME280;18905;42.668;23.364;2022-10-31T14:28:01;95570.03;;;24.77;42.10
28626;BME280;18905;42.668;23.364;2022-10-31T14:30:28;95566.09;;;24.68;42.02
28626;BME280;18905;42.668;23.364;2022-10-31T14:33:02;95568.81;;;24.47;43.37
28626;BME280;18905;42.668;23.364;2022-10-31T14:38:52;95565.25;;;24.22;43.78
28626;BME280;18905;42.668;23.364;2022-10-31T14:44:21;95571.16;;;24.10;45.09
28626;BME280;18905;42.668;23.364;2022-10-31T14:47:23;95556.19;;;24.04;44.22
28626;BME280;18905;42.668;23.364;2022-10-31T14:52:36;95567.22;;;24.04;43.73
28626;BME280;18905;42.668;23.364;2022-10-31T14:55:06;95564.06;;;23.95;44.38
28626;BME280;18905;42.668;23.364;2022-10-31T14:57:37;95564.81;;;23.92;44.42
28626;BME280;18905;42.668;23.364;2022-10-31T15:00:06;95553.34;;;23.79;44.08
28626;BME280;18905;42.668;23.364;2022-10-31T15:05:33;95565.91;;;23.70;46.00
28626;BME280;18905;42.668;23.364;2022-10-31T15:07:59;95567.84;;;23.62;47.57